Time;durP1;ratioP1;P1;durP2;ratioP2;P2;SDS_P1;SDS_P2;PMS_P1;PMS_P2;Temp;Humidity;BMP_temperature;BMP_pressure;BME280_temperature;BME280_humidity;BME280_pressure;Samples;Min_cycle;Max_cycle;Signal;HPM_P1;HPM_P2
2021/12/04 00:02:21;;;;;;;3.60;2.90;;;3.60;99.90;;;;;;5051603;28;20099;-66
2021/12/04 00:04:49;;;;;;;5.15;2.95;;;4.10;99.90;;;;;;5051157;28;20108;-66
2021/12/04 00:07:16;;;;;;;4.25;2.75;;;4.60;99.90;;;;;;5051074;28;20054;-67
2021/12/04 00:09:45;;;;;;;3.10;2.65;;;4.10;99.90;;;;;;5051365;28;20021;-66
2021/12/04 00:12:11;;;;;;;4.22;3.08;;;3.30;99.90;;;;;;5052529;28;20025;-66
2021/12/04 00:14:38;;;;;;;4.13;2.70;;;4.10;99.90;;;;;;5050082;28;20029;-65
2021/12/04 00:17:05;;;;;;;4.45;2.85;;;4.20;99.90;;;;;;5049189;28;20055;-66
2021/12/04 00:19:31;;;;;;;3.88;2.70;;;4.10;99.90;;;;;;5048331;28;20031;-66
2021/12/04 00:21:58;;;;;;;4.53;3.05;;;4.00;99.90;;;;;;5035365;28;20087;-66
2021/12/04 00:24:24;;;;;;;2.97;2.60;;;4.80;99.90;;;;;;5051273;28;20032;-66
2021/12/04 00:26:51;;;;;;;3.28;2.92;;;4.00;99.90;;;;;;5050674;28;20025;-66
2021/12/04 00:29:18;;;;;;;3.55;2.92;;;5.00;99.90;;;;;;5051282;28;20033;-65
2021/12/04 00:31:49;;;;;;;2.90;2.47;;;4.30;99.90;;;;;;5048623;28;20024;-67
2021/12/04 00:34:16;;;;;;;4.07;2.70;;;4.30;99.90;;;;;;5050867;28;20036;-64
2021/12/04 00:50:05;;;;;;;2.80;2.60;;;4.40;99.90;;;;;;5031933;28;20569;-66
2021/12/04 00:52:31;;;;;;;3.55;2.60;;;4.60;99.90;;;;;;5046857;28;20112;-65
2021/12/04 00:54:57;;;;;;;3.38;2.38;;;4.60;99.90;;;;;;5050724;28;20124;-65
2021/12/04 00:57:23;;;;;;;4.93;2.95;;;4.50;99.90;;;;;;5048884;28;20037;-66
2021/12/04 00:59:48;;;;;;;3.63;2.92;;;4.80;99.90;;;;;;5054980;28;20047;-67
2021/12/04 01:02:18;;;;;;;3.40;2.72;;;4.60;99.90;;;;;;5055268;28;20017;-67
2021/12/04 01:04:44;;;;;;;4.57;3.05;;;4.70;99.90;;;;;;5053488;28;20029;-65
2021/12/04 01:07:10;;;;;;;3.05;2.75;;;4.80;99.90;;;;;;5055120;28;20086;-67
2021/12/04 01:09:36;;;;;;;2.75;2.50;;;4.30;99.90;;;;;;5054746;28;20043;-65
2021/12/04 01:12:02;;;;;;;4.38;3.08;;;3.80;99.90;;;;;;5053975;28;20100;-65
2021/12/04 01:14:29;;;;;;;4.28;3.38;;;4.40;99.90;;;;;;5049813;28;20044;-65
2021/12/04 01:16:55;;;;;;;3.45;3.00;;;4.20;99.90;;;;;;5053479;28;20029;-66
2021/12/04 01:19:21;;;;;;;3.83;3.42;;;4.80;99.90;;;;;;5036477;28;20025;-66
2021/12/04 01:21:49;;;;;;;5.05;3.47;;;3.90;99.90;;;;;;5054645;28;20536;-66
2021/12/04 01:24:15;;;;;;;4.55;3.42;;;3.70;99.90;;;;;;5050611;28;20035;-65
2021/12/04 01:26:41;;;;;;;5.35;3.47;;;;;;;;;;5054741;28;20029;-65
2021/12/04 01:29:07;;;;;;;4.18;3.30;;;3.50;99.90;;;;;;5054649;28;20067;-64
2021/12/04 01:31:33;;;;;;;5.65;4.07;;;4.10;99.90;;;;;;5041744;28;20480;-67
2021/12/04 01:33:58;;;;;;;9.93;4.15;;;3.70;99.90;;;;;;5034628;28;20112;-67
2021/12/04 01:36:25;;;;;;;5.70;4.30;;;3.40;99.90;;;;;;5036039;28;20101;-65
2021/12/04 01:38:51;;;;;;;6.80;3.67;;;2.80;99.90;;;;;;5050159;28;20029;-65
2021/12/04 01:41:18;;;;;;;5.55;4.07;;;3.40;99.90;;;;;;5054789;28;20106;-66
2021/12/04 01:43:44;;;;;;;6.28;4.38;;;3.50;99.90;;;;;;5053984;28;20029;-65
2021/12/04 01:46:09;;;;;;;5.60;4.82;;;3.10;99.90;;;;;;5053745;28;20036;-65
2021/12/04 01:48:35;;;;;;;5.38;3.75;;;3.60;99.90;;;;;;5055334;28;20025;-65
2021/12/04 01:51:01;;;;;;;4.95;4.18;;;3.50;99.90;;;;;;5054093;28;20394;-67
2021/12/04 01:53:28;;;;;;;5.05;4.50;;;2.90;99.90;;;;;;5054154;28;20025;-67
2021/12/04 01:55:56;;;;;;;7.65;5.05;;;3.70;99.90;;;;;;5053205;28;20098;-65
2021/12/04 01:58:23;;;;;;;8.13;4.68;;;;;;;;;;5052814;28;20028;-65
2021/12/04 02:00:49;;;;;;;6.40;4.93;;;2.80;99.90;;;;;;5054097;28;20027;-65
2021/12/04 02:03:18;;;;;;;7.25;4.28;;;3.00;99.90;;;;;;5052778;28;20029;-68
2021/12/04 02:05:44;;;;;;;9.35;5.05;;;3.00;99.90;;;;;;5050998;28;20108;-66
2021/12/04 02:08:13;;;;;;;5.90;4.82;;;3.20;99.90;;;;;;5053318;28;20029;-65
2021/12/04 02:10:41;;;;;;;7.38;4.53;;;3.50;99.90;;;;;;5053174;28;20084;-66
2021/12/04 02:13:07;;;;;;;5.25;4.68;;;3.30;99.90;;;;;;5053972;28;20017;-65
2021/12/04 02:15:33;;;;;;;7.90;5.45;;;3.50;99.90;;;;;;5053393;28;20032;-65
2021/12/04 02:17:59;;;;;;;8.57;5.60;;;3.20;99.90;;;;;;5049683;28;20044;-65
2021/12/04 02:20:28;;;;;;;11.15;6.00;;;2.70;99.90;;;;;;5053725;28;20079;-65
2021/12/04 02:22:55;;;;;;;10.50;6.40;;;3.10;99.90;;;;;;5053260;28;20049;-67
2021/12/04 02:25:21;;;;;;;11.50;6.57;;;3.00;99.90;;;;;;5052848;28;20078;-64
2021/12/04 02:27:47;;;;;;;10.38;6.30;;;2.90;99.90;;;;;;5055616;28;20021;-65
2021/12/04 02:30:17;;;;;;;9.00;6.00;;;2.50;99.90;;;;;;5050043;28;20104;-65
2021/12/04 02:32:44;;;;;;;9.15;5.97;;;3.30;99.90;;;;;;5053579;28;20021;-66
2021/12/04 02:35:10;;;;;;;8.13;5.75;;;;;;;;;;5053080;28;20023;-65
2021/12/04 02:37:38;;;;;;;9.35;6.00;;;3.10;99.90;;;;;;5052874;28;20498;-66
2021/12/04 02:40:06;;;;;;;7.60;5.35;;;2.90;99.90;;;;;;5053169;28;20540;-67
2021/12/04 02:42:32;;;;;;;6.63;5.97;;;3.20;99.90;;;;;;5053290;28;20379;-67
2021/12/04 02:45:00;;;;;;;7.55;6.18;;;3.50;99.90;;;;;;5052182;28;20028;-67
2021/12/04 02:47:27;;;;;;;8.25;5.97;;;3.30;99.90;;;;;;5053586;28;20021;-66
2021/12/04 02:49:55;;;;;;;8.02;6.32;;;3.20;99.90;;;;;;5037891;28;20089;-67
2021/12/04 02:52:21;;;;;;;7.70;6.15;;;2.40;99.90;;;;;;5053050;28;20040;-65
2021/12/04 02:54:48;;;;;;;10.05;6.07;;;2.60;99.90;;;;;;5052207;28;20025;-65
2021/12/04 02:57:15;;;;;;;8.27;5.85;;;2.60;99.90;;;;;;5049369;28;20028;-65
2021/12/04 02:59:43;;;;;;;9.15;6.28;;;2.90;99.90;;;;;;5052846;28;20110;-65
2021/12/04 03:02:17;;;;;;;7.68;6.30;;;3.20;99.90;;;;;;5053071;28;20166;-65
2021/12/04 03:04:47;;;;;;;9.10;6.68;;;2.80;99.90;;;;;;5051441;28;20025;-66
2021/12/04 03:07:14;;;;;;;9.35;6.70;;;2.90;99.90;;;;;;5052379;28;20094;-66
2021/12/04 03:09:40;;;;;;;6.90;6.15;;;2.90;99.90;;;;;;5047383;28;20025;-67
2021/12/04 03:12:07;;;;;;;8.25;6.35;;;3.00;99.90;;;;;;5052784;28;20025;-67
2021/12/04 03:14:33;;;;;;;9.35;7.25;;;3.00;99.90;;;;;;5052168;28;20072;-64
2021/12/04 03:16:59;;;;;;;9.30;6.68;;;3.10;99.90;;;;;;5052130;28;20104;-65
2021/12/04 03:19:26;;;;;;;9.98;6.07;;;2.70;99.90;;;;;;5052275;28;20075;-66
2021/12/04 03:21:52;;;;;;;7.22;6.25;;;3.30;99.90;;;;;;5052339;28;20028;-65
2021/12/04 03:24:19;;;;;;;7.90;6.53;;;3.40;99.90;;;;;;5047929;28;20029;-65
2021/12/04 03:26:47;;;;;;;9.07;6.28;;;2.70;99.90;;;;;;5052623;28;20103;-65
2021/12/04 03:29:17;;;;;;;8.88;6.75;;;2.90;99.90;;;;;;5051860;28;20048;-65
2021/12/04 03:42:22;;;;;;;7.82;6.53;;;3.20;99.90;;;;;;5054766;28;20028;-66
2021/12/04 03:44:48;;;;;;;8.00;6.43;;;2.90;99.90;;;;;;5051839;28;20025;-65
2021/12/04 03:47:14;;;;;;;7.95;6.65;;;;;;;;;;5052024;28;20029;-66
2021/12/04 03:49:40;;;;;;;8.98;7.22;;;3.30;99.90;;;;;;5047846;28;20056;-65
2021/12/04 03:52:07;;;;;;;10.50;7.40;;;3.10;99.90;;;;;;5051954;28;20075;-67
2021/12/04 03:54:34;;;;;;;10.60;6.68;;;3.00;99.90;;;;;;5051276;28;20037;-67
2021/12/04 03:57:05;;;;;;;13.48;7.43;;;3.70;99.90;;;;;;5051045;28;20053;-65
2021/12/04 03:59:33;;;;;;;10.70;7.00;;;2.80;99.90;;;;;;5051385;28;20111;-65
2021/12/04 04:01:59;;;;;;;10.98;7.38;;;3.30;99.90;;;;;;5051685;28;20052;-66
2021/12/04 04:04:24;;;;;;;10.05;7.20;;;3.20;99.90;;;;;;5047163;28;20053;-66
2021/12/04 04:06:50;;;;;;;11.55;6.80;;;2.90;99.90;;;;;;5051557;28;20024;-66
2021/12/04 04:09:16;;;;;;;9.02;7.55;;;3.20;99.90;;;;;;5051092;28;20048;-67
2021/12/04 04:11:42;;;;;;;10.65;7.25;;;3.40;99.90;;;;;;5052234;28;20025;-65
2021/12/04 04:14:08;;;;;;;11.80;7.63;;;2.80;99.90;;;;;;5051743;28;20074;-65
2021/12/04 04:16:36;;;;;;;12.45;7.60;;;3.30;99.90;;;;;;5047008;28;20040;-65
2021/12/04 04:19:03;;;;;;;13.80;8.05;;;3.40;99.90;;;;;;5051651;28;20043;-67
2021/12/04 04:21:29;;;;;;;13.80;8.32;;;3.70;99.90;;;;;;5068448;28;20021;-65
2021/12/04 04:23:55;;;;;;;10.93;7.53;;;3.20;99.90;;;;;;5055165;28;20037;-66
2021/12/04 04:26:21;;;;;;;10.25;7.25;;;3.40;99.90;;;;;;5050708;28;20023;-65
2021/12/04 04:28:46;;;;;;;9.88;7.63;;;3.60;99.90;;;;;;5048849;28;20071;-67
2021/12/04 04:31:12;;;;;;;15.48;8.85;;;3.40;99.90;;;;;;5049742;28;20033;-66
2021/12/04 04:33:42;;;;;;;10.27;7.22;;;3.80;99.90;;;;;;5051739;28;20108;-66
2021/12/04 05:00:46;;;;;;;11.27;7.95;;;3.20;99.90;;;;;;5033691;28;20041;-66
2021/12/04 05:11:35;;;;;;;10.85;7.53;;;3.10;99.90;;;;;;5017932;28;20029;-67
2021/12/04 05:14:04;;;;;;;10.70;7.82;;;;;;;;;;5068614;22;20021;-71
2021/12/04 05:16:41;;;;;;;13.02;7.40;;;3.70;99.90;;;;;;5059188;28;20475;-70
2021/12/04 05:19:25;;;;;;;8.90;7.13;;;3.70;99.90;;;;;;5036141;28;20375;-72
2021/12/04 05:21:50;;;;;;;9.73;7.45;;;3.50;99.90;;;;;;5044446;28;20021;-71
2021/12/04 05:24:16;;;;;;;13.20;7.63;;;5.10;99.90;;;;;;5050426;28;20032;-71
2021/12/04 05:26:42;;;;;;;9.20;7.05;;;3.90;99.90;;;;;;5050786;28;20029;-70
2021/12/04 05:29:07;;;;;;;9.38;7.40;;;4.10;99.90;;;;;;5046401;28;20036;-70
2021/12/04 05:31:33;;;;;;;10.75;6.85;;;;;;;;;;5050801;28;20040;-71
2021/12/04 05:33:59;;;;;;;6.90;6.07;;;4.20;99.90;;;;;;5050807;28;20033;-72
2021/12/04 05:36:25;;;;;;;10.05;6.43;;;3.50;99.90;;;;;;5048883;28;20102;-71
2021/12/04 05:38:51;;;;;;;6.13;5.35;;;;;;;;;;5050778;28;20470;-72
2021/12/04 05:41:17;;;;;;;11.75;5.97;;;4.20;99.90;;;;;;5050831;28;20029;-73
2021/12/04 05:43:43;;;;;;;9.10;6.50;;;4.60;99.90;;;;;;5047932;28;20028;-71
2021/12/04 05:46:14;;;;;;;11.20;5.88;;;4.60;99.90;;;;;;5053278;28;20029;-69
2021/12/04 05:56:59;;;;;;;6.30;5.20;;;4.60;99.90;;;;;;5052054;28;20163;-71
2021/12/04 05:59:26;;;;;;;7.53;4.75;;;4.30;99.90;;;;;;5054007;28;20024;-71
2021/12/04 06:01:52;;;;;;;6.03;4.63;;;4.50;99.90;;;;;;5053332;28;20032;-71
2021/12/04 06:04:18;;;;;;;6.25;4.60;;;;;;;;;;5035607;28;20495;-71
2021/12/04 06:06:44;;;;;;;4.35;3.95;;;;;;;;;;5036058;28;20172;-72
2021/12/04 06:09:10;;;;;;;4.05;3.30;;;4.60;99.90;;;;;;5049661;28;20033;-72
2021/12/04 06:11:36;;;;;;;3.33;3.03;;;;;;;;;;5053890;28;20028;-72
2021/12/04 06:14:05;;;;;;;2.13;2.00;;;4.50;99.90;;;;;;5053593;28;20104;-72
2021/12/04 06:16:31;;;;;;;2.17;1.90;;;4.80;99.90;;;;;;5049736;28;20020;-72
2021/12/04 06:18:59;;;;;;;3.28;1.55;;;4.30;99.90;;;;;;5053880;28;20094;-72
2021/12/04 06:24:09;;;;;;;0.82;0.70;;;4.70;99.90;;;;;;5037870;28;20041;-74
2021/12/04 06:26:36;;;;;;;0.77;0.75;;;4.90;99.90;;;;;;5036855;28;20029;-74
2021/12/04 06:29:03;;;;;;;1.00;0.88;;;;;;;;;;5040879;28;20503;-74
2021/12/04 06:31:30;;;;;;;0.80;0.80;;;5.00;99.90;;;;;;5040405;28;20029;-74
2021/12/04 06:33:56;;;;;;;0.77;0.77;;;6.00;99.90;;;;;;5052996;28;20078;-74
2021/12/04 06:36:22;;;;;;;1.42;1.33;;;5.30;99.90;;;;;;5048422;28;20029;-75
2021/12/04 06:38:48;;;;;;;3.70;1.83;;;4.60;99.90;;;;;;5053333;28;20025;-75
2021/12/04 06:41:14;;;;;;;1.75;1.65;;;5.30;99.90;;;;;;5052439;28;20387;-75
2021/12/04 06:43:46;;;;;;;1.30;1.20;;;5.60;99.90;;;;;;5054130;28;20035;-73
2021/12/04 06:46:12;;;;;;;1.48;1.38;;;4.90;99.90;;;;;;5051870;28;20040;-73
2021/12/04 06:48:43;;;;;;;1.50;1.40;;;5.20;99.90;;;;;;5048986;28;20025;-74
2021/12/04 06:51:27;;;;;;;2.37;2.20;;;5.00;99.90;;;;;;5053559;28;20036;-73
2021/12/04 06:54:16;;;;;;;6.50;3.05;;;5.20;99.90;;;;;;5053176;28;20025;-74
2021/12/04 06:56:43;;;;;;;6.75;4.70;;;5.50;99.90;;;;;;5052023;28;20033;-74
2021/12/04 06:59:18;;;;;;;10.73;5.72;;;5.10;99.90;;;;;;5053129;28;20024;-74
2021/12/04 07:01:44;;;;;;;7.53;6.82;;;;;;;;;;5034705;28;20025;-73
2021/12/04 07:04:10;;;;;;;3.50;3.20;;;5.10;99.90;;;;;;5052736;28;20086;-74
2021/12/04 07:06:36;;;;;;;2.17;1.95;;;5.10;99.90;;;;;;5052068;28;20029;-75
2021/12/04 07:09:03;;;;;;;1.48;1.48;;;5.10;99.90;;;;;;5052138;28;20509;-74
2021/12/04 07:11:28;;;;;;;1.70;1.60;;;5.20;99.90;;;;;;5052812;28;20494;-74
2021/12/04 07:13:55;;;;;;;1.73;1.27;;;5.20;99.90;;;;;;5052433;28;20032;-72
2021/12/04 07:16:22;;;;;;;4.95;4.53;;;5.00;99.90;;;;;;5050544;28;20095;-72
2021/12/04 07:18:48;;;;;;;1.63;1.52;;;5.10;99.90;;;;;;5040347;28;20033;-72
2021/12/04 07:21:15;;;;;;;1.25;1.10;;;5.10;99.90;;;;;;5040121;28;20128;-75
2021/12/04 07:23:41;;;;;;;0.75;0.75;;;5.50;99.90;;;;;;5028392;28;20029;-75
2021/12/04 07:26:07;;;;;;;2.38;2.28;;;5.40;99.90;;;;;;5040588;28;20029;-76
2021/12/04 07:28:34;;;;;;;2.17;1.98;;;5.30;99.90;;;;;;5041691;28;20037;-76
2021/12/04 07:31:00;;;;;;;2.35;2.10;;;5.60;99.90;;;;;;5038450;28;20498;-76
2021/12/04 07:33:26;;;;;;;10.90;9.05;;;5.50;99.90;;;;;;5042002;28;20083;-76
2021/12/04 07:35:52;;;;;;;4.20;3.10;;;5.70;99.90;;;;;;5041662;28;20021;-76
2021/12/04 07:38:18;;;;;;;8.27;7.38;;;5.50;99.90;;;;;;5041688;28;20021;-76
2021/12/04 07:40:45;;;;;;;4.00;3.35;;;6.20;99.90;;;;;;5049464;28;20024;-76
2021/12/04 07:43:12;;;;;;;1.48;1.35;;;5.60;99.90;;;;;;5036537;28;20024;-75
2021/12/04 07:45:38;;;;;;;1.75;1.50;;;5.60;99.90;;;;;;5050740;28;20498;-75
2021/12/04 07:48:04;;;;;;;1.58;0.93;;;5.70;99.90;;;;;;5051309;28;20033;-77
2021/12/04 07:50:30;;;;;;;7.32;5.93;;;5.80;99.90;;;;;;5052692;28;20548;-73
2021/12/04 07:52:57;;;;;;;5.70;4.50;;;5.80;99.90;;;;;;5050347;28;20033;-69
2021/12/04 07:55:25;;;;;;;2.55;2.35;;;5.80;99.90;;;;;;5048816;28;20426;-68
2021/12/04 07:57:51;;;;;;;5.65;3.88;;;6.00;99.90;;;;;;5052234;28;20017;-69
2021/12/04 08:00:19;;;;;;;6.38;4.70;;;6.00;99.90;;;;;;5051064;28;20115;-69
2021/12/04 08:02:45;;;;;;;5.30;4.10;;;6.10;99.90;;;;;;5051955;28;20024;-69
2021/12/04 08:05:12;;;;;;;16.63;10.23;;;6.00;99.90;;;;;;5051135;28;20017;-69
2021/12/04 08:07:38;;;;;;;6.80;4.88;;;6.30;99.90;;;;;;5047041;28;20129;-69
2021/12/04 08:10:06;;;;;;;5.07;4.13;;;6.30;99.90;;;;;;5032816;28;20029;-69
2021/12/04 08:12:32;;;;;;;6.40;4.65;;;6.10;99.90;;;;;;5031912;28;20516;-68
2021/12/04 08:14:57;;;;;;;16.85;10.32;;;6.50;99.90;;;;;;5049448;28;20057;-72
2021/12/04 08:17:25;;;;;;;49.85;33.42;;;6.80;99.90;;;;;;5051497;28;20467;-74
2021/12/04 08:19:51;;;;;;;16.45;11.80;;;7.00;99.90;;;;;;5051139;28;20032;-75
2021/12/04 08:22:16;;;;;;;25.38;15.52;;;6.70;99.90;;;;;;5052092;28;20032;-74
2021/12/04 08:24:44;;;;;;;19.08;12.02;;;6.90;99.90;;;;;;5051193;28;20643;-74
2021/12/04 08:27:10;;;;;;;9.70;5.45;;;7.10;99.90;;;;;;5047608;28;20059;-75
2021/12/04 08:29:36;;;;;;;5.45;3.40;;;6.80;99.90;;;;;;5051322;28;20665;-74
2021/12/04 08:32:02;;;;;;;14.98;7.10;;;7.00;99.90;;;;;;5051589;28;20025;-75
2021/12/04 08:34:28;;;;;;;21.65;12.93;;;6.90;99.90;;;;;;5049618;28;20087;-75
2021/12/04 08:36:54;;;;;;;12.50;5.35;;;7.00;99.90;;;;;;5051088;28;20480;-75
2021/12/04 08:39:20;;;;;;;18.77;7.80;;;6.90;99.90;;;;;;5052009;28;20048;-74
2021/12/04 08:41:46;;;;;;;4.07;2.85;;;7.00;99.90;;;;;;5047265;28;20075;-75
2021/12/04 08:44:13;;;;;;;24.98;12.75;;;7.00;99.90;;;;;;5051535;28;20039;-75
2021/12/04 08:46:39;;;;;;;11.80;5.70;;;7.20;99.90;;;;;;5049805;28;20032;-75
2021/12/04 08:49:06;;;;;;;7.63;4.70;;;7.90;99.90;;;;;;5051777;28;20025;-75
2021/12/04 08:51:33;;;;;;;19.75;11.85;;;7.00;99.90;;;;;;5051679;28;20025;-75
2021/12/04 08:54:01;;;;;;;5.85;3.95;;;7.40;99.90;;;;;;5047512;28;20540;-75
2021/12/04 08:56:27;;;;;;;8.52;6.22;;;7.10;99.90;;;;;;5051192;28;20025;-76
2021/12/04 08:58:53;;;;;;;8.23;5.82;;;7.30;99.90;;;;;;5051712;28;20021;-76
2021/12/04 09:01:25;;;;;;;6.60;4.15;;;7.40;99.90;;;;;;5050667;28;20035;-76
2021/12/04 09:03:56;;;;;;;12.05;7.25;;;7.40;99.90;;;;;;5053982;28;20028;-76
2021/12/04 09:06:23;;;;;;;2.55;2.35;;;7.60;99.90;;;;;;5048721;28;20518;-73
2021/12/04 09:08:49;;;;;;;91.90;60.83;;;8.00;99.90;;;;;;5052908;28;20037;-73
2021/12/04 09:11:20;;;;;;;8.27;5.88;;;7.80;99.90;;;;;;5053541;28;20017;-74
2021/12/04 09:13:48;;;;;;;19.00;10.18;;;7.80;99.90;;;;;;5052700;28;20378;-73
2021/12/04 09:16:15;;;;;;;8.93;6.15;;;7.90;99.90;;;;;;5051597;28;20120;-72
2021/12/04 09:18:42;;;;;;;13.60;9.68;;;7.80;99.90;;;;;;5050020;28;20025;-73
2021/12/04 09:21:10;;;;;;;1.75;1.30;;;8.10;99.90;;;;;;5054439;28;20020;-71
2021/12/04 09:23:38;;;;;;;8.05;6.28;;;8.10;99.90;;;;;;5055584;28;20021;-75
2021/12/04 09:26:05;;;;;;;71.43;31.92;;;8.30;99.90;;;;;;5053555;28;20454;-72
2021/12/04 10:15:09;;;;;;;2.38;2.15;;;9.90;99.90;;;;;;5053296;28;20403;-70
2021/12/04 10:20:03;;;;;;;1.48;1.27;;;9.50;99.90;;;;;;5034172;28;20097;-71
2021/12/04 10:22:48;;;;;;;7.22;6.57;;;10.30;99.90;;;;;;5034405;28;20026;-69
2021/12/04 10:33:47;;;;;;;0.82;0.63;;;10.50;99.90;;;;;;5053510;28;20063;-71
2021/12/04 10:36:24;;;;;;;0.63;0.63;;;10.40;99.90;;;;;;5052703;28;20104;-69
2021/12/04 10:38:51;;;;;;;1.20;0.47;;;10.30;99.90;;;;;;5049141;28;20048;-70
2021/12/04 10:41:17;;;;;;;0.43;0.43;;;10.30;99.90;;;;;;5053600;28;20051;-71
2021/12/04 10:43:43;;;;;;;0.50;0.50;;;10.40;99.90;;;;;;5052635;28;20025;-70
2021/12/04 10:46:18;;;;;;;0.60;0.60;;;10.40;99.90;;;;;;5050650;28;20035;-70
2021/12/04 10:48:58;;;;;;;0.77;0.73;;;10.30;99.90;;;;;;5052994;28;20021;-70
2021/12/04 10:51:35;;;;;;;0.50;0.50;;;10.30;99.90;;;;;;5049515;28;20035;-70
2021/12/04 10:54:16;;;;;;;0.80;0.80;;;10.30;99.90;;;;;;5053066;28;20021;-71
2021/12/04 11:04:50;;;;;;;0.73;0.73;;;10.20;99.90;;;;;;5047887;28;20063;-71
2021/12/04 11:23:55;;;;;;;0.82;0.60;;;10.20;99.90;;;;;;5072636;28;20089;-67
2021/12/04 11:42:45;;;;;;;0.63;0.63;;;10.40;99.90;;;;;;5071762;28;20113;-69
2021/12/04 11:45:24;;;;;;;0.50;0.50;;;10.90;99.90;;;;;;5071134;28;20028;-69
2021/12/04 11:47:53;;;;;;;0.60;0.60;;;10.70;99.90;;;;;;5062555;28;20044;-69
2021/12/04 11:50:29;;;;;;;2.72;0.60;;;10.50;99.90;;;;;;5057150;28;20047;-69
2021/12/04 11:52:58;;;;;;;0.40;0.40;;;10.50;99.90;;;;;;5051855;28;20033;-69
2021/12/04 11:55:27;;;;;;;0.82;0.80;;;10.60;99.90;;;;;;5050642;28;20086;-68
2021/12/04 11:57:55;;;;;;;0.45;0.45;;;10.60;99.90;;;;;;5036318;28;20025;-68
2021/12/04 12:00:27;;;;;;;0.40;0.40;;;10.20;99.90;;;;;;5040665;28;20085;-68
2021/12/04 12:03:10;;;;;;;0.95;0.70;;;10.40;99.90;;;;;;5054625;28;20043;-71
2021/12/04 12:06:06;;;;;;;0.60;0.60;;;10.60;99.90;;;;;;5051309;28;20032;-70
2021/12/04 12:08:33;;;;;;;1.15;0.50;;;10.00;99.90;;;;;;5046814;28;20389;-70
2021/12/04 12:11:08;;;;;;;0.45;0.45;;;9.70;99.90;;;;;;5051815;28;20017;-70
2021/12/04 12:13:39;;;;;;;1.13;0.57;;;9.80;99.90;;;;;;5051628;28;20025;-70
2021/12/04 12:16:10;;;;;;;0.50;0.50;;;10.50;99.90;;;;;;5032552;28;20112;-70
2021/12/04 12:18:54;;;;;;;3.33;0.65;;;10.50;99.90;;;;;;5051444;28;20058;-70
2021/12/04 12:21:25;;;;;;;0.50;0.40;;;9.90;99.90;;;;;;5052214;28;20099;-69
2021/12/04 12:27:26;;;;;;;1.48;0.50;;;9.90;99.90;;;;;;5050947;28;20044;-69
2021/12/04 12:38:53;;;;;;;2.20;0.73;;;11.10;99.90;;;;;;5031751;28;20618;-74
2021/12/04 12:41:24;;;;;;;0.93;0.57;;;10.60;99.90;;;;;;5031915;28;20018;-70
2021/12/04 12:43:57;;;;;;;0.75;0.57;;;10.40;99.90;;;;;;5044062;28;20087;-70
2021/12/04 12:46:56;;;;;;;0.73;0.70;;;10.20;99.90;;;;;;5051170;28;20503;-71
2021/12/04 12:49:28;;;;;;;0.90;0.40;;;10.20;99.90;;;;;;5043104;28;20052;-71
2021/12/04 12:52:04;;;;;;;0.50;0.50;;;9.70;99.90;;;;;;5051473;28;20067;-70
2021/12/04 12:54:55;;;;;;;0.40;0.40;;;10.00;99.90;;;;;;5054844;28;20036;-71
2021/12/04 12:57:34;;;;;;;0.57;0.50;;;10.00;99.90;;;;;;5040518;28;20124;-71
2021/12/04 13:14:13;;;;;;;0.50;0.50;;;10.40;99.90;;;;;;5055205;28;20029;-70
2021/12/04 13:16:42;;;;;;;0.60;0.60;;;10.10;99.90;;;;;;5063617;28;20036;-71
2021/12/04 13:19:12;;;;;;;0.60;0.60;;;9.70;99.90;;;;;;5053477;28;20028;-70
2021/12/04 13:21:40;;;;;;;0.50;0.50;;;10.00;99.90;;;;;;5067099;28;20027;-70
2021/12/04 13:24:10;;;;;;;1.75;0.47;;;9.80;99.90;;;;;;5057189;28;20059;-69
2021/12/04 13:26:39;;;;;;;0.80;0.50;;;9.80;99.90;;;;;;5052323;28;20033;-70
2021/12/04 13:29:07;;;;;;;11.80;1.60;;;9.90;99.90;;;;;;5055968;28;20028;-70
2021/12/04 13:31:37;;;;;;;1.60;0.50;;;10.00;99.90;;;;;;5054627;28;20374;-70
2021/12/04 13:34:08;;;;;;;15.70;2.40;;;9.80;99.90;;;;;;5054594;28;20035;-69
2021/12/04 13:36:34;;;;;;;1.10;0.50;;;9.70;99.90;;;;;;5054355;28;20090;-70
2021/12/04 13:39:10;;;;;;;32.00;14.35;;;9.70;99.90;;;;;;5050079;28;20021;-75
2021/12/04 13:41:39;;;;;;;4.28;1.35;;;9.70;99.90;;;;;;5050924;28;20352;-76
2021/12/04 13:44:08;;;;;;;1.50;1.00;;;9.70;99.90;;;;;;5045018;28;20025;-77
2021/12/04 13:46:42;;;;;;;32.80;17.83;;;9.70;99.90;;;;;;5050263;28;20032;-76
2021/12/04 13:49:08;;;;;;;20.65;10.48;;;9.50;99.90;;;;;;5042669;28;20052;-76
2021/12/04 13:51:34;;;;;;;4.55;1.55;;;9.50;99.90;;;;;;5052580;28;20028;-77
2021/12/04 13:54:02;;;;;;;2.65;1.05;;;9.50;99.90;;;;;;5054310;28;20024;-75
2021/12/04 13:56:28;;;;;;;1.15;1.10;;;10.00;99.90;;;;;;5052937;28;20104;-75
2021/12/04 13:58:57;;;;;;;1.52;1.15;;;9.60;99.90;;;;;;5055347;28;20076;-75
2021/12/04 14:01:25;;;;;;;1.08;1.00;;;9.60;99.90;;;;;;5054945;28;20029;-75
2021/12/04 14:04:02;;;;;;;34.58;15.05;;;9.30;99.90;;;;;;5054389;28;20029;-75
2021/12/04 14:06:29;;;;;;;6.43;3.35;;;9.10;99.90;;;;;;5052222;28;20035;-75
2021/12/04 14:09:04;;;;;;;119.97;50.33;;;9.10;99.90;;;;;;5052908;28;20037;-75
2021/12/04 14:11:38;;;;;;;0.68;0.60;;;9.30;99.90;;;;;;5057340;28;20383;-74
2021/12/04 14:14:19;;;;;;;130.80;49.53;;;9.20;99.90;;;;;;5063553;28;20009;-75
2021/12/04 14:16:50;;;;;;;1.55;1.05;;;9.20;99.90;;;;;;5044594;28;20017;-75
2021/12/04 14:19:28;;;;;;;3.40;3.20;;;9.40;99.90;;;;;;5055303;28;20482;-74
2021/12/04 14:22:05;;;;;;;1.27;0.98;;;9.20;99.90;;;;;;5053609;28;20451;-76
2021/12/04 14:24:57;;;;;;;1.60;1.50;;;9.20;99.90;;;;;;5054265;28;20056;-76
2021/12/04 14:27:35;;;;;;;1.48;1.38;;;8.90;99.90;;;;;;5053996;28;20025;-76
2021/12/04 14:30:14;;;;;;;1.10;1.00;;;9.10;99.90;;;;;;5056657;28;20036;-76
2021/12/04 14:32:42;;;;;;;0.85;0.80;;;9.10;99.90;;;;;;5056082;28;20040;-75
2021/12/04 14:35:14;;;;;;;0.75;0.75;;;9.20;99.90;;;;;;5036554;28;20047;-77
2021/12/04 14:37:41;;;;;;;0.98;0.85;;;9.10;99.90;;;;;;5036182;28;20021;-77
2021/12/04 14:40:13;;;;;;;1.20;1.08;;;9.30;99.90;;;;;;5053238;28;20411;-78
2021/12/04 14:42:39;;;;;;;1.10;1.00;;;9.10;99.90;;;;;;5049383;28;20029;-79
2021/12/04 14:45:28;;;;;;;0.68;0.63;;;9.20;99.90;;;;;;5052824;28;20372;-75
2021/12/04 14:47:56;;;;;;;3.47;1.80;;;9.60;99.90;;;;;;5051883;28;20031;-75
2021/12/04 14:50:23;;;;;;;1.23;1.17;;;9.80;99.90;;;;;;5053468;28;20024;-76
2021/12/04 14:52:58;;;;;;;2.15;1.15;;;9.10;99.90;;;;;;5052566;28;20052;-74
2021/12/04 14:55:30;;;;;;;2.58;0.95;;;9.70;99.90;;;;;;5050157;28;20017;-75
2021/12/04 14:57:57;;;;;;;0.88;0.88;;;9.50;99.90;;;;;;5051701;28;20412;-74
2021/12/04 15:00:22;;;;;;;1.02;0.88;;;9.40;99.90;;;;;;5051733;28;20450;-73
2021/12/04 15:03:01;;;;;;;0.77;0.77;;;8.90;99.90;;;;;;5051009;28;20840;-75
2021/12/04 15:05:35;;;;;;;1.10;1.00;;;9.80;99.90;;;;;;5054740;28;20429;-74
2021/12/04 15:08:10;;;;;;;2.22;1.30;;;9.90;99.90;;;;;;5054768;28;20017;-74
2021/12/04 15:10:37;;;;;;;3.72;1.38;;;9.30;99.90;;;;;;5038175;28;20036;-74
2021/12/04 15:13:07;;;;;;;1.52;1.10;;;9.30;99.90;;;;;;5033521;28;20124;-74
2021/12/04 15:15:36;;;;;;;1.52;1.13;;;9.30;99.90;;;;;;5032158;28;20022;-74
2021/12/04 15:18:09;;;;;;;0.80;0.80;;;9.30;99.90;;;;;;5046960;28;20051;-74
2021/12/04 15:20:37;;;;;;;0.75;0.75;;;9.10;99.90;;;;;;5053155;28;20068;-73
2021/12/04 15:23:07;;;;;;;1.05;0.90;;;9.40;99.90;;;;;;5052104;28;20040;-74
2021/12/04 15:25:36;;;;;;;0.73;0.73;;;9.80;99.90;;;;;;5052485;28;20021;-75
2021/12/04 15:28:16;;;;;;;0.82;0.82;;;9.30;99.90;;;;;;5053033;28;20044;-75
2021/12/04 15:30:52;;;;;;;0.73;0.73;;;8.70;99.90;;;;;;5048785;28;20552;-74
2021/12/04 15:33:23;;;;;;;1.10;1.00;;;9.60;99.90;;;;;;5052412;28;20025;-74
2021/12/04 15:35:50;;;;;;;0.73;0.73;;;9.80;99.90;;;;;;5052006;28;20021;-71
2021/12/04 15:38:28;;;;;;;1.20;1.20;;;9.20;99.90;;;;;;5051198;28;20100;-70
2021/12/04 15:41:06;;;;;;;0.80;0.80;;;9.60;99.90;;;;;;5051182;28;20505;-70
2021/12/04 15:43:56;;;;;;;0.98;0.80;;;9.30;99.90;;;;;;5052429;28;20025;-72
2021/12/04 15:46:37;;;;;;;1.90;1.00;;;9.20;99.90;;;;;;5031889;28;20550;-71
2021/12/04 15:49:27;;;;;;;1.38;1.00;;;9.30;99.90;;;;;;5034224;28;20029;-69
2021/12/04 15:54:58;;;;;;;2.05;1.67;;;9.40;99.90;;;;;;5051724;28;20518;-70
2021/12/04 15:57:23;;;;;;;2.42;1.70;;;9.40;99.90;;;;;;5052687;28;20017;-71
2021/12/04 15:59:52;;;;;;;1.88;1.58;;;9.20;99.90;;;;;;5030328;28;20036;-72
2021/12/04 16:02:29;;;;;;;3.75;1.50;;;9.50;99.90;;;;;;5052306;28;20021;-72
2021/12/04 16:05:05;;;;;;;1.33;1.23;;;9.30;99.90;;;;;;5051569;28;20029;-72
2021/12/04 16:07:32;;;;;;;1.67;1.20;;;9.60;99.90;;;;;;5051552;28;20040;-70
2021/12/04 16:10:03;;;;;;;1.50;1.40;;;9.50;99.90;;;;;;5052474;28;20096;-70
2021/12/04 16:12:30;;;;;;;1.83;1.70;;;9.40;99.90;;;;;;5051771;28;20035;-74
2021/12/04 16:14:57;;;;;;;2.50;2.28;;;9.20;99.90;;;;;;5048377;28;20032;-76
2021/12/04 16:17:24;;;;;;;1.10;1.00;;;9.90;99.90;;;;;;5052153;28;20390;-77
2021/12/04 16:20:01;;;;;;;2.90;2.50;;;9.50;99.90;;;;;;5051565;28;20071;-77
2021/12/04 16:22:29;;;;;;;3.78;2.03;;;9.50;99.90;;;;;;5052221;28;20024;-76
2021/12/04 16:24:55;;;;;;;1.30;1.20;;;9.40;99.90;;;;;;5051257;28;20093;-77